sensor_id;sensor_type;location;lat;lon;timestamp;pressure;altitude;pressure_sealevel;temperature;humidity
46392;BME280;32098;49.448;7.904;2023-08-06T00:01:34;97239.94;;;14.70;72.04
46392;BME280;32098;49.448;7.904;2023-08-06T00:04:00;97238.31;;;14.69;71.84
46392;BME280;32098;49.448;7.904;2023-08-06T00:06:27;97234.91;;;14.63;71.88
46392;BME280;32098;49.448;7.904;2023-08-06T00:08:53;97239.47;;;14.63;71.87
46392;BME280;32098;49.448;7.904;2023-08-06T00:11:21;97239.41;;;14.73;71.67
46392;BME280;32098;49.448;7.904;2023-08-06T00:13:47;97242.03;;;14.78;71.18
46392;BME280;32098;49.448;7.904;2023-08-06T00:16:14;97237.66;;;14.87;70.82
46392;BME280;32098;49.448;7.904;2023-08-06T00:18:41;97227.22;;;14.85;70.71
46392;BME280;32098;49.448;7.904;2023-08-06T00:21:08;97230.88;;;14.94;70.83
46392;BME280;32098;49.448;7.904;2023-08-06T00:23:35;97231.66;;;15.00;70.34
46392;BME280;32098;49.448;7.904;2023-08-06T00:26:01;97221.44;;;14.97;70.45
46392;BME280;32098;49.448;7.904;2023-08-06T00:28:28;97212.34;;;14.93;70.63
46392;BME280;32098;49.448;7.904;2023-08-06T00:30:55;97217.97;;;14.97;70.59
46392;BME280;32098;49.448;7.904;2023-08-06T00:33:22;97205.38;;;14.92;70.52
46392;BME280;32098;49.448;7.904;2023-08-06T00:35:49;97211.06;;;14.85;70.90
46392;BME280;32098;49.448;7.904;2023-08-06T00:38:16;97208.09;;;14.87;71.08
46392;BME280;32098;49.448;7.904;2023-08-06T00:40:42;97205.16;;;14.88;70.77
46392;BME280;32098;49.448;7.904;2023-08-06T00:43:09;97196.88;;;14.80;71.08
46392;BME280;32098;49.448;7.904;2023-08-06T00:45:37;97193.84;;;14.86;70.80
46392;BME280;32098;49.448;7.904;2023-08-06T00:48:05;97195.28;;;14.74;71.17
46392;BME280;32098;49.448;7.904;2023-08-06T00:50:32;97183.00;;;14.68;71.61
46392;BME280;32098;49.448;7.904;2023-08-06T00:52:59;97199.59;;;14.75;71.38
46392;BME280;32098;49.448;7.904;2023-08-06T00:55:26;97182.09;;;14.77;71.23
46392;BME280;32098;49.448;7.904;2023-08-06T00:57:53;97180.75;;;14.80;71.23
46392;BME280;32098;49.448;7.904;2023-08-06T01:00:24;97190.13;;;14.82;71.10
46392;BME280;32098;49.448;7.904;2023-08-06T01:02:51;97188.00;;;14.79;71.28
46392;BME280;32098;49.448;7.904;2023-08-06T01:05:18;97185.88;;;14.76;71.04
46392;BME280;32098;49.448;7.904;2023-08-06T01:10:36;97176.72;;;14.77;70.96
46392;BME280;32098;49.448;7.904;2023-08-06T01:13:30;97167.06;;;14.76;70.74
46392;BME280;32098;49.448;7.904;2023-08-06T01:15:59;97179.13;;;14.79;70.89
46392;BME280;32098;49.448;7.904;2023-08-06T01:18:27;97173.84;;;14.69;70.93
46392;BME280;32098;49.448;7.904;2023-08-06T01:20:54;97170.13;;;14.65;71.31
46392;BME280;32098;49.448;7.904;2023-08-06T01:23:21;97164.41;;;14.71;71.15
46392;BME280;32098;49.448;7.904;2023-08-06T01:28:56;97165.28;;;14.62;70.80
46392;BME280;32098;49.448;7.904;2023-08-06T01:31:27;97164.44;;;14.66;71.17
46392;BME280;32098;49.448;7.904;2023-08-06T01:33:58;97172.38;;;14.48;72.25
46392;BME280;32098;49.448;7.904;2023-08-06T01:36:26;97175.97;;;14.33;72.70
46392;BME280;32098;49.448;7.904;2023-08-06T01:38:53;97171.63;;;14.37;72.67
46392;BME280;32098;49.448;7.904;2023-08-06T01:41:20;97179.66;;;14.42;73.07
46392;BME280;32098;49.448;7.904;2023-08-06T01:43:47;97173.69;;;14.50;73.03
46392;BME280;32098;49.448;7.904;2023-08-06T01:46:13;97180.72;;;14.41;73.18
46392;BME280;32098;49.448;7.904;2023-08-06T01:48:40;97169.69;;;14.53;73.21
46392;BME280;32098;49.448;7.904;2023-08-06T01:51:06;97168.59;;;14.49;73.41
46392;BME280;32098;49.448;7.904;2023-08-06T01:53:33;97157.28;;;14.52;73.49
46392;BME280;32098;49.448;7.904;2023-08-06T01:56:00;97159.78;;;14.43;73.89
46392;BME280;32098;49.448;7.904;2023-08-06T01:58:27;97155.78;;;14.41;74.25
46392;BME280;32098;49.448;7.904;2023-08-06T02:00:53;97133.78;;;14.33;74.46
46392;BME280;32098;49.448;7.904;2023-08-06T02:03:20;97148.78;;;14.40;74.44
46392;BME280;32098;49.448;7.904;2023-08-06T02:05:47;97149.31;;;14.42;74.58
46392;BME280;32098;49.448;7.904;2023-08-06T02:08:14;97145.53;;;14.43;74.69
46392;BME280;32098;49.448;7.904;2023-08-06T02:10:41;97138.28;;;14.43;74.42
46392;BME280;32098;49.448;7.904;2023-08-06T02:13:08;97139.69;;;14.36;74.50
46392;BME280;32098;49.448;7.904;2023-08-06T02:15:34;97136.19;;;14.35;74.52
46392;BME280;32098;49.448;7.904;2023-08-06T02:18:01;97148.59;;;14.26;74.90
46392;BME280;32098;49.448;7.904;2023-08-06T02:20:28;97141.09;;;14.28;74.87
46392;BME280;32098;49.448;7.904;2023-08-06T02:22:54;97141.88;;;14.28;74.39
46392;BME280;32098;49.448;7.904;2023-08-06T02:25:21;97150.84;;;14.14;75.16
46392;BME280;32098;49.448;7.904;2023-08-06T02:27:47;97133.41;;;14.11;75.42
46392;BME280;32098;49.448;7.904;2023-08-06T02:30:14;97143.53;;;14.24;74.54
46392;BME280;32098;49.448;7.904;2023-08-06T02:32:40;97146.19;;;14.24;74.31
46392;BME280;32098;49.448;7.904;2023-08-06T02:35:07;97136.84;;;14.17;74.84
46392;BME280;32098;49.448;7.904;2023-08-06T02:37:34;97142.53;;;14.15;74.74
46392;BME280;32098;49.448;7.904;2023-08-06T02:40:01;97131.75;;;14.20;74.86
46392;BME280;32098;49.448;7.904;2023-08-06T02:42:28;97126.66;;;14.14;75.53
46392;BME280;32098;49.448;7.904;2023-08-06T02:44:55;97135.53;;;14.14;76.11
46392;BME280;32098;49.448;7.904;2023-08-06T02:47:22;97125.94;;;14.08;75.90
46392;BME280;32098;49.448;7.904;2023-08-06T02:49:49;97127.00;;;14.07;76.04
46392;BME280;32098;49.448;7.904;2023-08-06T02:52:16;97129.13;;;14.10;76.48
46392;BME280;32098;49.448;7.904;2023-08-06T02:54:43;97122.16;;;14.04;75.96
46392;BME280;32098;49.448;7.904;2023-08-06T02:57:11;97126.03;;;13.88;76.86
46392;BME280;32098;49.448;7.904;2023-08-06T02:59:38;97121.78;;;13.82;76.82
46392;BME280;32098;49.448;7.904;2023-08-06T03:02:14;97120.03;;;13.47;78.02
46392;BME280;32098;49.448;7.904;2023-08-06T03:04:50;97119.53;;;13.40;78.64
46392;BME280;32098;49.448;7.904;2023-08-06T03:07:20;97128.34;;;13.46;77.97
46392;BME280;32098;49.448;7.904;2023-08-06T03:09:54;97122.97;;;13.56;78.93
46392;BME280;32098;49.448;7.904;2023-08-06T03:12:21;97117.38;;;13.52;79.93
46392;BME280;32098;49.448;7.904;2023-08-06T03:14:48;97119.53;;;13.40;80.88
46392;BME280;32098;49.448;7.904;2023-08-06T03:17:15;97120.09;;;13.32;80.84
46392;BME280;32098;49.448;7.904;2023-08-06T03:19:42;97115.78;;;13.31;81.42
46392;BME280;32098;49.448;7.904;2023-08-06T03:22:10;97113.91;;;13.32;81.71
46392;BME280;32098;49.448;7.904;2023-08-06T03:24:37;97101.28;;;13.42;81.61
46392;BME280;32098;49.448;7.904;2023-08-06T03:27:04;97104.97;;;13.51;81.21
46392;BME280;32098;49.448;7.904;2023-08-06T03:29:31;97100.44;;;13.47;81.35
46392;BME280;32098;49.448;7.904;2023-08-06T03:32:00;97110.63;;;13.50;81.80
46392;BME280;32098;49.448;7.904;2023-08-06T03:34:27;97099.63;;;13.51;81.94
46392;BME280;32098;49.448;7.904;2023-08-06T03:36:53;97103.13;;;13.47;82.24
46392;BME280;32098;49.448;7.904;2023-08-06T03:39:20;97107.44;;;13.48;82.59
46392;BME280;32098;49.448;7.904;2023-08-06T03:41:47;97103.16;;;13.52;82.71
46392;BME280;32098;49.448;7.904;2023-08-06T03:44:14;97116.03;;;13.45;82.77
46392;BME280;32098;49.448;7.904;2023-08-06T03:46:41;97110.34;;;13.56;82.39
46392;BME280;32098;49.448;7.904;2023-08-06T03:49:08;97102.31;;;13.46;82.61
46392;BME280;32098;49.448;7.904;2023-08-06T03:51:34;97102.09;;;13.43;82.59
46392;BME280;32098;49.448;7.904;2023-08-06T03:54:01;97104.53;;;13.34;82.83
46392;BME280;32098;49.448;7.904;2023-08-06T03:56:29;97099.97;;;13.35;82.98
46392;BME280;32098;49.448;7.904;2023-08-06T03:58:55;97101.06;;;13.29;82.74
46392;BME280;32098;49.448;7.904;2023-08-06T04:01:23;97105.91;;;13.27;82.86
46392;BME280;32098;49.448;7.904;2023-08-06T04:03:50;97092.75;;;13.30;83.11
46392;BME280;32098;49.448;7.904;2023-08-06T04:06:16;97103.22;;;13.22;83.71
46392;BME280;32098;49.448;7.904;2023-08-06T04:08:43;97105.06;;;13.31;83.92
46392;BME280;32098;49.448;7.904;2023-08-06T04:11:09;97108.31;;;13.33;83.51
46392;BME280;32098;49.448;7.904;2023-08-06T04:13:36;97103.75;;;13.29;83.48
46392;BME280;32098;49.448;7.904;2023-08-06T04:16:03;97098.97;;;13.21;83.34
46392;BME280;32098;49.448;7.904;2023-08-06T04:18:31;97108.06;;;13.25;83.80
46392;BME280;32098;49.448;7.904;2023-08-06T04:20:57;97101.66;;;13.16;83.34
46392;BME280;32098;49.448;7.904;2023-08-06T04:23:24;97104.91;;;13.08;84.08
46392;BME280;32098;49.448;7.904;2023-08-06T04:25:57;97100.06;;;13.04;83.01
46392;BME280;32098;49.448;7.904;2023-08-06T04:28:27;97101.69;;;13.06;83.80
46392;BME280;32098;49.448;7.904;2023-08-06T04:30:54;97100.34;;;13.03;83.85
46392;BME280;32098;49.448;7.904;2023-08-06T04:33:21;97103.31;;;12.91;84.19
46392;BME280;32098;49.448;7.904;2023-08-06T04:35:53;97100.63;;;12.91;84.52
46392;BME280;32098;49.448;7.904;2023-08-06T04:38:23;97099.59;;;12.77;84.66
46392;BME280;32098;49.448;7.904;2023-08-06T04:40:51;97099.59;;;12.82;85.09
46392;BME280;32098;49.448;7.904;2023-08-06T04:43:18;97106.56;;;12.78;85.58
46392;BME280;32098;49.448;7.904;2023-08-06T04:45:46;97109.22;;;12.73;84.95
46392;BME280;32098;49.448;7.904;2023-08-06T04:48:13;97102.31;;;12.62;85.38
46392;BME280;32098;49.448;7.904;2023-08-06T04:50:47;97111.13;;;12.68;86.07
46392;BME280;32098;49.448;7.904;2023-08-06T04:53:15;97101.47;;;12.77;85.24
46392;BME280;32098;49.448;7.904;2023-08-06T04:55:42;97106.56;;;12.78;84.53
46392;BME280;32098;49.448;7.904;2023-08-06T04:58:09;97104.41;;;12.85;84.72
46392;BME280;32098;49.448;7.904;2023-08-06T05:00:36;97110.03;;;12.89;84.38
46392;BME280;32098;49.448;7.904;2023-08-06T05:03:03;97106.81;;;12.92;84.26
46392;BME280;32098;49.448;7.904;2023-08-06T05:05:30;97111.88;;;12.88;84.06
46392;BME280;32098;49.448;7.904;2023-08-06T05:07:57;97110.53;;;12.91;84.34
46392;BME280;32098;49.448;7.904;2023-08-06T05:10:27;97108.16;;;12.89;84.47
46392;BME280;32098;49.448;7.904;2023-08-06T05:12:54;97114.31;;;12.90;84.32
46392;BME280;32098;49.448;7.904;2023-08-06T05:15:21;97110.53;;;12.96;84.23
46392;BME280;32098;49.448;7.904;2023-08-06T05:17:47;97114.03;;;12.86;84.89
46392;BME280;32098;49.448;7.904;2023-08-06T05:20:14;97107.09;;;12.85;84.55
46392;BME280;32098;49.448;7.904;2023-08-06T05:22:41;97121.03;;;12.87;84.98
46392;BME280;32098;49.448;7.904;2023-08-06T05:25:08;97115.91;;;12.91;84.88
46392;BME280;32098;49.448;7.904;2023-08-06T05:27:35;97109.19;;;12.93;84.29
46392;BME280;32098;49.448;7.904;2023-08-06T05:30:02;97112.72;;;12.84;84.25
46392;BME280;32098;49.448;7.904;2023-08-06T05:32:28;97111.34;;;12.96;84.52
46392;BME280;32098;49.448;7.904;2023-08-06T05:34:55;97119.13;;;12.93;84.30
46392;BME280;32098;49.448;7.904;2023-08-06T05:37:21;97106.50;;;12.98;84.19
46392;BME280;32098;49.448;7.904;2023-08-06T05:39:48;97124.22;;;12.99;84.22
46392;BME280;32098;49.448;7.904;2023-08-06T05:42:15;97118.31;;;12.97;84.46
46392;BME280;32098;49.448;7.904;2023-08-06T05:44:41;97109.78;;;12.80;84.98
46392;BME280;32098;49.448;7.904;2023-08-06T05:47:08;97120.75;;;12.84;85.31
46392;BME280;32098;49.448;7.904;2023-08-06T05:49:34;97121.00;;;12.92;85.33
46392;BME280;32098;49.448;7.904;2023-08-06T05:52:01;97119.41;;;12.91;85.68
46392;BME280;32098;49.448;7.904;2023-08-06T05:54:29;97111.63;;;12.90;85.39
46392;BME280;32098;49.448;7.904;2023-08-06T05:56:55;97113.22;;;12.91;85.27
46392;BME280;32098;49.448;7.904;2023-08-06T05:59:22;97113.19;;;13.06;84.27
46392;BME280;32098;49.448;7.904;2023-08-06T06:01:48;97119.09;;;13.13;83.75
46392;BME280;32098;49.448;7.904;2023-08-06T06:04:15;97111.34;;;12.91;84.29
46392;BME280;32098;49.448;7.904;2023-08-06T06:06:41;97119.94;;;12.83;84.84
46392;BME280;32098;49.448;7.904;2023-08-06T06:09:08;97114.56;;;12.88;84.87
46392;BME280;32098;49.448;7.904;2023-08-06T06:11:34;97116.16;;;12.99;84.25
46392;BME280;32098;49.448;7.904;2023-08-06T06:14:01;97123.66;;;13.08;84.83
46392;BME280;32098;49.448;7.904;2023-08-06T06:16:27;97123.63;;;13.23;84.58
46392;BME280;32098;49.448;7.904;2023-08-06T06:18:54;97121.44;;;13.35;84.68
46392;BME280;32098;49.448;7.904;2023-08-06T06:21:21;97112.84;;;13.33;84.36
46392;BME280;32098;49.448;7.904;2023-08-06T06:23:47;97123.28;;;13.39;85.08
46392;BME280;32098;49.448;7.904;2023-08-06T06:26:14;97115.47;;;13.48;84.15
46392;BME280;32098;49.448;7.904;2023-08-06T06:28:41;97115.72;;;13.51;83.75
46392;BME280;32098;49.448;7.904;2023-08-06T06:31:07;97129.72;;;13.38;83.72
46392;BME280;32098;49.448;7.904;2023-08-06T06:33:34;97129.97;;;13.42;84.06
46392;BME280;32098;49.448;7.904;2023-08-06T06:36:00;97128.38;;;13.36;83.11
46392;BME280;32098;49.448;7.904;2023-08-06T06:38:29;97149.53;;;13.47;83.84
46392;BME280;32098;49.448;7.904;2023-08-06T06:40:56;97140.69;;;13.52;84.80
46392;BME280;32098;49.448;7.904;2023-08-06T06:43:23;97142.34;;;13.38;84.18
46392;BME280;32098;49.448;7.904;2023-08-06T06:45:53;97104.00;;;13.32;84.50
46392;BME280;32098;49.448;7.904;2023-08-06T06:48:21;97139.03;;;13.51;84.77
46392;BME280;32098;49.448;7.904;2023-08-06T06:50:48;97142.03;;;13.54;84.50
46392;BME280;32098;49.448;7.904;2023-08-06T06:53:15;97146.56;;;13.59;84.93
46392;BME280;32098;49.448;7.904;2023-08-06T06:55:41;97141.22;;;13.54;84.42
46392;BME280;32098;49.448;7.904;2023-08-06T06:58:08;97144.94;;;13.63;84.08
46392;BME280;32098;49.448;7.904;2023-08-06T07:00:38;97146.09;;;13.32;84.69
46392;BME280;32098;49.448;7.904;2023-08-06T07:03:05;97153.06;;;13.38;84.81
46392;BME280;32098;49.448;7.904;2023-08-06T07:05:32;97146.34;;;13.40;85.39
46392;BME280;32098;49.448;7.904;2023-08-06T07:07:59;97150.63;;;13.41;85.29
46392;BME280;32098;49.448;7.904;2023-08-06T07:10:25;97155.19;;;13.36;85.62
46392;BME280;32098;49.448;7.904;2023-08-06T07:12:52;97155.16;;;13.56;85.06
46392;BME280;32098;49.448;7.904;2023-08-06T07:15:18;97157.28;;;13.64;84.68
46392;BME280;32098;49.448;7.904;2023-08-06T07:17:45;97155.06;;;13.76;84.51
46392;BME280;32098;49.448;7.904;2023-08-06T07:20:12;97162.53;;;13.84;83.99
46392;BME280;32098;49.448;7.904;2023-08-06T07:22:38;97149.41;;;13.83;82.82
46392;BME280;32098;49.448;7.904;2023-08-06T07:25:05;97148.53;;;13.97;82.13
46392;BME280;32098;49.448;7.904;2023-08-06T07:27:32;97158.41;;;14.07;82.64
46392;BME280;32098;49.448;7.904;2023-08-06T07:29:58;97158.63;;;14.15;82.85
46392;BME280;32098;49.448;7.904;2023-08-06T07:32:26;97160.41;;;14.30;82.97
46392;BME280;32098;49.448;7.904;2023-08-06T07:34:52;97130.16;;;14.14;82.07
46392;BME280;32098;49.448;7.904;2023-08-06T07:37:23;97166.06;;;14.23;81.87
46392;BME280;32098;49.448;7.904;2023-08-06T07:39:49;97171.59;;;14.42;81.90
46392;BME280;32098;49.448;7.904;2023-08-06T07:42:16;97164.31;;;14.53;81.46
46392;BME280;32098;49.448;7.904;2023-08-06T07:44:42;97173.34;;;14.62;81.60
46392;BME280;32098;49.448;7.904;2023-08-06T07:47:09;97165.78;;;14.69;81.10
46392;BME280;32098;49.448;7.904;2023-08-06T07:49:35;97160.94;;;14.71;80.53
46392;BME280;32098;49.448;7.904;2023-08-06T07:52:02;97169.47;;;14.78;80.19
46392;BME280;32098;49.448;7.904;2023-08-06T07:54:29;97157.72;;;14.69;79.48
46392;BME280;32098;49.448;7.904;2023-08-06T07:56:55;97163.28;;;14.77;78.96
46392;BME280;32098;49.448;7.904;2023-08-06T07:59:22;97166.53;;;14.74;79.08
46392;BME280;32098;49.448;7.904;2023-08-06T08:01:49;97156.94;;;14.68;78.87
46392;BME280;32098;49.448;7.904;2023-08-06T08:04:16;97160.97;;;14.66;79.20
46392;BME280;32098;49.448;7.904;2023-08-06T08:06:43;97167.19;;;14.61;79.75
46392;BME280;32098;49.448;7.904;2023-08-06T08:09:09;97158.81;;;14.68;79.96
46392;BME280;32098;49.448;7.904;2023-08-06T08:11:35;97163.25;;;14.82;79.49
46392;BME280;32098;49.448;7.904;2023-08-06T08:14:02;97162.13;;;14.88;79.09
46392;BME280;32098;49.448;7.904;2023-08-06T08:16:29;97160.94;;;15.00;78.38
46392;BME280;32098;49.448;7.904;2023-08-06T08:18:56;97154.13;;;15.07;77.92
46392;BME280;32098;49.448;7.904;2023-08-06T08:21:23;97154.59;;;15.14;77.78
46392;BME280;32098;49.448;7.904;2023-08-06T08:23:51;97158.75;;;15.30;77.07
46392;BME280;32098;49.448;7.904;2023-08-06T08:26:17;97161.28;;;15.45;76.19
46392;BME280;32098;49.448;7.904;2023-08-06T08:28:44;97153.38;;;15.54;75.85
46392;BME280;32098;49.448;7.904;2023-08-06T08:31:11;97163.13;;;15.74;74.34
46392;BME280;32098;49.448;7.904;2023-08-06T08:33:38;97152.66;;;15.91;73.12
46392;BME280;32098;49.448;7.904;2023-08-06T08:36:04;97146.97;;;15.92;72.47
46392;BME280;32098;49.448;7.904;2023-08-06T08:38:31;97156.53;;;16.03;72.36
46392;BME280;32098;49.448;7.904;2023-08-06T08:40:57;97152.31;;;15.97;72.52
46392;BME280;32098;49.448;7.904;2023-08-06T08:43:24;97139.97;;;15.73;71.58
46392;BME280;32098;49.448;7.904;2023-08-06T08:45:52;97150.19;;;15.52;72.77
46392;BME280;32098;49.448;7.904;2023-08-06T08:48:19;97152.31;;;15.55;73.27
46392;BME280;32098;49.448;7.904;2023-08-06T08:50:47;97148.66;;;15.17;73.52
46392;BME280;32098;49.448;7.904;2023-08-06T08:53:16;97150.84;;;15.15;74.79
46392;BME280;32098;49.448;7.904;2023-08-06T08:55:49;97147.09;;;15.11;76.74
46392;BME280;32098;49.448;7.904;2023-08-06T08:58:16;97157.88;;;14.82;77.20
46392;BME280;32098;49.448;7.904;2023-08-06T09:00:42;97162.19;;;14.83;77.85
46392;BME280;32098;49.448;7.904;2023-08-06T09:03:11;97166.88;;;14.68;78.63
46392;BME280;32098;49.448;7.904;2023-08-06T09:05:43;97176.38;;;14.50;78.86
46392;BME280;32098;49.448;7.904;2023-08-06T09:08:11;97178.13;;;14.26;79.76
46392;BME280;32098;49.448;7.904;2023-08-06T09:10:43;97180.72;;;14.02;79.97
46392;BME280;32098;49.448;7.904;2023-08-06T09:13:10;97176.38;;;14.06;80.72
46392;BME280;32098;49.448;7.904;2023-08-06T09:15:38;97186.34;;;14.06;81.36
46392;BME280;32098;49.448;7.904;2023-08-06T09:18:11;97171.38;;;13.90;82.20
46392;BME280;32098;49.448;7.904;2023-08-06T09:20:39;97176.75;;;13.90;81.75
46392;BME280;32098;49.448;7.904;2023-08-06T09:23:09;97173.19;;;14.04;81.59
46392;BME280;32098;49.448;7.904;2023-08-06T09:25:39;97173.75;;;13.96;81.64
46392;BME280;32098;49.448;7.904;2023-08-06T09:28:09;97186.09;;;13.97;82.37
46392;BME280;32098;49.448;7.904;2023-08-06T09:30:36;97183.41;;;14.02;81.99
46392;BME280;32098;49.448;7.904;2023-08-06T09:33:04;97182.63;;;13.97;80.78
46392;BME280;32098;49.448;7.904;2023-08-06T09:35:34;97196.47;;;14.14;81.23
46392;BME280;32098;49.448;7.904;2023-08-06T09:38:08;97207.41;;;14.27;80.82
46392;BME280;32098;49.448;7.904;2023-08-06T09:40:37;97199.44;;;14.17;81.54
46392;BME280;32098;49.448;7.904;2023-08-06T09:43:04;97192.19;;;14.13;81.36
46392;BME280;32098;49.448;7.904;2023-08-06T09:45:36;97204.25;;;14.20;80.94
46392;BME280;32098;49.448;7.904;2023-08-06T09:48:05;97201.59;;;14.15;80.74
46392;BME280;32098;49.448;7.904;2023-08-06T09:50:34;97205.63;;;14.13;80.47
46392;BME280;32098;49.448;7.904;2023-08-06T09:53:06;97215.03;;;14.10;80.98
46392;BME280;32098;49.448;7.904;2023-08-06T09:55:33;97216.44;;;13.98;81.20
46392;BME280;32098;49.448;7.904;2023-08-06T09:58:00;97226.88;;;13.99;80.89
46392;BME280;32098;49.448;7.904;2023-08-06T10:00:26;97222.88;;;13.97;81.02
46392;BME280;32098;49.448;7.904;2023-08-06T10:02:54;97238.78;;;13.83;81.64
46392;BME280;32098;49.448;7.904;2023-08-06T10:05:26;97244.69;;;13.80;82.24
46392;BME280;32098;49.448;7.904;2023-08-06T10:07:53;97245.22;;;13.82;82.21
46392;BME280;32098;49.448;7.904;2023-08-06T10:10:22;97256.47;;;13.84;82.31
46392;BME280;32098;49.448;7.904;2023-08-06T10:12:51;97254.09;;;13.78;82.44
46392;BME280;32098;49.448;7.904;2023-08-06T10:15:25;97254.91;;;13.78;81.54
46392;BME280;32098;49.448;7.904;2023-08-06T10:17:55;97264.53;;;13.84;81.98
46392;BME280;32098;49.448;7.904;2023-08-06T10:20:22;97269.91;;;13.84;82.15
46392;BME280;32098;49.448;7.904;2023-08-06T10:23:03;97269.13;;;13.74;82.29
46392;BME280;32098;49.448;7.904;2023-08-06T10:25:31;97272.91;;;13.67;81.59
46392;BME280;32098;49.448;7.904;2023-08-06T10:27:59;97277.97;;;13.74;83.14
46392;BME280;32098;49.448;7.904;2023-08-06T10:30:30;97277.16;;;13.74;82.78
46392;BME280;32098;49.448;7.904;2023-08-06T10:33:00;97280.94;;;13.73;82.45
46392;BME280;32098;49.448;7.904;2023-08-06T10:35:38;97275.03;;;13.81;82.20
46392;BME280;32098;49.448;7.904;2023-08-06T10:38:14;97277.41;;;13.82;81.86
46392;BME280;32098;49.448;7.904;2023-08-06T10:45:54;97309.66;;;13.67;81.77
46392;BME280;32098;49.448;7.904;2023-08-06T10:48:34;97300.53;;;13.78;82.25
46392;BME280;32098;49.448;7.904;2023-08-06T10:51:02;97309.38;;;13.68;82.17
46392;BME280;32098;49.448;7.904;2023-08-06T10:53:29;97307.22;;;13.81;83.37
46392;BME280;32098;49.448;7.904;2023-08-06T10:56:00;97307.47;;;13.79;83.29
46392;BME280;32098;49.448;7.904;2023-08-06T10:58:33;97316.59;;;13.88;82.78
46392;BME280;32098;49.448;7.904;2023-08-06T11:01:00;97322.47;;;14.00;82.32
46392;BME280;32098;49.448;7.904;2023-08-06T11:03:27;97322.94;;;14.17;80.56
46392;BME280;32098;49.448;7.904;2023-08-06T11:05:54;97327.47;;;14.27;79.46
46392;BME280;32098;49.448;7.904;2023-08-06T11:08:28;97338.44;;;14.36;80.03
46392;BME280;32098;49.448;7.904;2023-08-06T11:10:55;97344.84;;;14.45;78.14
46392;BME280;32098;49.448;7.904;2023-08-06T11:13:33;97336.75;;;14.50;77.39
46392;BME280;32098;49.448;7.904;2023-08-06T11:16:00;97347.81;;;14.53;77.39
46392;BME280;32098;49.448;7.904;2023-08-06T11:18:26;97352.59;;;14.61;76.88
46392;BME280;32098;49.448;7.904;2023-08-06T11:20:53;97343.13;;;14.69;76.97
46392;BME280;32098;49.448;7.904;2023-08-06T11:23:20;97353.31;;;14.77;77.06
46392;BME280;32098;49.448;7.904;2023-08-06T11:25:46;97351.94;;;14.84;75.88
46392;BME280;32098;49.448;7.904;2023-08-06T11:28:13;97347.34;;;14.90;75.51
46392;BME280;32098;49.448;7.904;2023-08-06T11:30:40;97365.84;;;14.91;73.27
46392;BME280;32098;49.448;7.904;2023-08-06T11:33:07;97359.09;;;14.99;73.27
46392;BME280;32098;49.448;7.904;2023-08-06T11:35:36;97359.13;;;14.94;72.62
46392;BME280;32098;49.448;7.904;2023-08-06T11:38:03;97365.25;;;15.05;72.67
46392;BME280;32098;49.448;7.904;2023-08-06T11:40:31;97365.47;;;15.13;73.21
46392;BME280;32098;49.448;7.904;2023-08-06T11:42:58;97352.03;;;15.13;73.56
46392;BME280;32098;49.448;7.904;2023-08-06T11:45:25;97371.38;;;15.15;71.92
46392;BME280;32098;49.448;7.904;2023-08-06T11:47:52;97371.59;;;15.19;72.10
46392;BME280;32098;49.448;7.904;2023-08-06T11:50:24;97373.50;;;15.18;71.08
46392;BME280;32098;49.448;7.904;2023-08-06T11:52:58;97370.63;;;15.05;71.90
46392;BME280;32098;49.448;7.904;2023-08-06T11:55:26;97385.94;;;15.04;72.64
46392;BME280;32098;49.448;7.904;2023-08-06T11:57:53;97388.41;;;15.01;71.94
46392;BME280;32098;49.448;7.904;2023-08-06T12:00:20;97401.69;;;14.77;73.80
46392;BME280;32098;49.448;7.904;2023-08-06T12:02:49;97407.66;;;14.64;74.42
46392;BME280;32098;49.448;7.904;2023-08-06T12:05:19;97416.56;;;14.49;75.15
46392;BME280;32098;49.448;7.904;2023-08-06T12:07:55;97425.44;;;14.45;76.68
46392;BME280;32098;49.448;7.904;2023-08-06T12:10:24;97429.78;;;14.30;77.50
46392;BME280;32098;49.448;7.904;2023-08-06T12:12:50;97433.53;;;14.35;77.96
46392;BME280;32098;49.448;7.904;2023-08-06T12:15:17;97432.97;;;14.43;77.50
46392;BME280;32098;49.448;7.904;2023-08-06T12:17:44;97438.38;;;14.33;77.99
46392;BME280;32098;49.448;7.904;2023-08-06T12:20:11;97433.53;;;14.35;77.94
46392;BME280;32098;49.448;7.904;2023-08-06T12:22:38;97438.91;;;14.29;77.87
46392;BME280;32098;49.448;7.904;2023-08-06T12:25:08;97428.44;;;14.38;77.44
46392;BME280;32098;49.448;7.904;2023-08-06T12:27:35;97424.09;;;14.42;78.77
46392;BME280;32098;49.448;7.904;2023-08-06T12:30:03;97447.72;;;14.60;77.41
46392;BME280;32098;49.448;7.904;2023-08-06T12:32:30;97399.13;;;14.42;76.33
46392;BME280;32098;49.448;7.904;2023-08-06T12:34:57;97445.56;;;14.67;76.78
46392;BME280;32098;49.448;7.904;2023-08-06T12:37:24;97437.00;;;14.55;76.59
46392;BME280;32098;49.448;7.904;2023-08-06T12:39:51;97445.84;;;14.51;76.86
46392;BME280;32098;49.448;7.904;2023-08-06T12:42:18;97447.44;;;14.67;76.92
46392;BME280;32098;49.448;7.904;2023-08-06T12:44:44;97443.13;;;14.76;77.73
46392;BME280;32098;49.448;7.904;2023-08-06T12:47:11;97451.16;;;14.81;77.00
46392;BME280;32098;49.448;7.904;2023-08-06T12:49:37;97460.31;;;14.70;75.79
46392;BME280;32098;49.448;7.904;2023-08-06T12:52:04;97455.22;;;14.73;75.81
46392;BME280;32098;49.448;7.904;2023-08-06T12:54:33;97455.44;;;14.77;75.28
46392;BME280;32098;49.448;7.904;2023-08-06T12:57:05;97457.91;;;14.68;75.10
46392;BME280;32098;49.448;7.904;2023-08-06T12:59:32;97463.06;;;14.55;75.18
46392;BME280;32098;49.448;7.904;2023-08-06T13:02:00;97461.69;;;14.62;75.76
46392;BME280;32098;49.448;7.904;2023-08-06T13:04:26;97463.31;;;14.58;74.94
46392;BME280;32098;49.448;7.904;2023-08-06T13:06:54;97464.38;;;14.62;74.27
46392;BME280;32098;49.448;7.904;2023-08-06T13:09:21;97462.22;;;14.64;74.59
46392;BME280;32098;49.448;7.904;2023-08-06T13:11:47;97469.41;;;14.79;74.89
46392;BME280;32098;49.448;7.904;2023-08-06T13:14:17;97472.34;;;14.87;74.50